sensor_id;sensor_type;location;lat;lon;timestamp;temperature;humidity
51175;DHT22;37240;50.104;20.010;2024-03-29T00:01:23;13.00;93.60
51175;DHT22;37240;50.104;20.010;2024-03-29T00:06:24;12.90;94.00
51175;DHT22;37240;50.104;20.010;2024-03-29T00:11:24;12.80;94.50
51175;DHT22;37240;50.104;20.010;2024-03-29T00:16:25;12.80;94.40
51175;DHT22;37240;50.104;20.010;2024-03-29T00:21:26;13.00;94.40
51175;DHT22;37240;50.104;20.010;2024-03-29T00:26:26;13.00;94.60
51175;DHT22;37240;50.104;20.010;2024-03-29T00:31:27;12.90;95.10
51175;DHT22;37240;50.104;20.010;2024-03-29T00:36:27;12.90;95.40
51175;DHT22;37240;50.104;20.010;2024-03-29T00:41:28;12.90;95.80
51175;DHT22;37240;50.104;20.010;2024-03-29T00:46:28;12.90;96.00
51175;DHT22;37240;50.104;20.010;2024-03-29T00:51:29;12.90;95.90
51175;DHT22;37240;50.104;20.010;2024-03-29T00:56:30;12.70;96.10
51175;DHT22;37240;50.104;20.010;2024-03-29T01:01:30;12.60;96.20
51175;DHT22;37240;50.104;20.010;2024-03-29T01:06:31;12.60;96.30
51175;DHT22;37240;50.104;20.010;2024-03-29T01:11:31;12.70;96.30
51175;DHT22;37240;50.104;20.010;2024-03-29T01:16:32;12.60;96.30
51175;DHT22;37240;50.104;20.010;2024-03-29T01:21:33;12.70;96.20
51175;DHT22;37240;50.104;20.010;2024-03-29T01:26:33;12.70;96.30
51175;DHT22;37240;50.104;20.010;2024-03-29T01:31:34;12.70;96.40
51175;DHT22;37240;50.104;20.010;2024-03-29T01:36:34;12.60;96.70
51175;DHT22;37240;50.104;20.010;2024-03-29T01:41:35;12.70;96.80
51175;DHT22;37240;50.104;20.010;2024-03-29T01:46:36;12.70;96.90
51175;DHT22;37240;50.104;20.010;2024-03-29T01:51:37;12.70;97.10
51175;DHT22;37240;50.104;20.010;2024-03-29T01:56:40;12.60;97.30
51175;DHT22;37240;50.104;20.010;2024-03-29T02:01:41;12.50;97.40
51175;DHT22;37240;50.104;20.010;2024-03-29T02:06:42;12.50;97.50
51175;DHT22;37240;50.104;20.010;2024-03-29T02:11:42;12.30;97.80
51175;DHT22;37240;50.104;20.010;2024-03-29T02:16:43;12.20;98.10
51175;DHT22;37240;50.104;20.010;2024-03-29T02:21:46;12.20;98.20
51175;DHT22;37240;50.104;20.010;2024-03-29T02:26:48;12.10;98.40
51175;DHT22;37240;50.104;20.010;2024-03-29T02:31:49;12.10;98.20
51175;DHT22;37240;50.104;20.010;2024-03-29T02:36:50;12.10;98.20
51175;DHT22;37240;50.104;20.010;2024-03-29T02:41:50;11.90;98.10
51175;DHT22;37240;50.104;20.010;2024-03-29T02:46:51;11.80;98.40
51175;DHT22;37240;50.104;20.010;2024-03-29T02:51:52;11.70;98.40
51175;DHT22;37240;50.104;20.010;2024-03-29T02:56:52;11.60;98.40
51175;DHT22;37240;50.104;20.010;2024-03-29T03:01:53;11.70;98.10
51175;DHT22;37240;50.104;20.010;2024-03-29T03:06:53;11.60;97.80
51175;DHT22;37240;50.104;20.010;2024-03-29T03:11:54;11.50;97.60
51175;DHT22;37240;50.104;20.010;2024-03-29T03:16:54;11.50;97.60
51175;DHT22;37240;50.104;20.010;2024-03-29T03:21:55;11.50;97.20
51175;DHT22;37240;50.104;20.010;2024-03-29T03:26:55;11.50;97.30
51175;DHT22;37240;50.104;20.010;2024-03-29T03:31:56;11.60;97.00
51175;DHT22;37240;50.104;20.010;2024-03-29T03:36:56;11.50;96.80
51175;DHT22;37240;50.104;20.010;2024-03-29T03:41:57;11.60;96.70
51175;DHT22;37240;50.104;20.010;2024-03-29T03:46:58;11.50;96.40
51175;DHT22;37240;50.104;20.010;2024-03-29T03:51:58;11.50;96.50
51175;DHT22;37240;50.104;20.010;2024-03-29T03:56:59;11.50;96.40
51175;DHT22;37240;50.104;20.010;2024-03-29T04:01:59;11.40;96.20
51175;DHT22;37240;50.104;20.010;2024-03-29T04:07:00;11.40;96.30
51175;DHT22;37240;50.104;20.010;2024-03-29T04:12:00;11.30;96.20
51175;DHT22;37240;50.104;20.010;2024-03-29T04:17:01;11.40;96.00
51175;DHT22;37240;50.104;20.010;2024-03-29T04:22:02;11.30;96.00
51175;DHT22;37240;50.104;20.010;2024-03-29T04:27:02;11.20;96.10
51175;DHT22;37240;50.104;20.010;2024-03-29T04:32:03;11.10;96.30
51175;DHT22;37240;50.104;20.010;2024-03-29T04:37:04;11.00;96.40
51175;DHT22;37240;50.104;20.010;2024-03-29T04:42:04;10.90;96.30
51175;DHT22;37240;50.104;20.010;2024-03-29T04:47:05;11.00;96.40
51175;DHT22;37240;50.104;20.010;2024-03-29T04:52:06;11.10;96.80
51175;DHT22;37240;50.104;20.010;2024-03-29T04:57:07;11.30;96.70
51175;DHT22;37240;50.104;20.010;2024-03-29T05:02:07;11.60;96.60
51175;DHT22;37240;50.104;20.010;2024-03-29T05:07:08;11.90;95.70
51175;DHT22;37240;50.104;20.010;2024-03-29T05:12:08;12.40;94.90
51175;DHT22;37240;50.104;20.010;2024-03-29T05:17:09;12.70;93.40
51175;DHT22;37240;50.104;20.010;2024-03-29T05:22:10;13.10;92.80
51175;DHT22;37240;50.104;20.010;2024-03-29T05:27:11;13.50;92.50
51175;DHT22;37240;50.104;20.010;2024-03-29T05:32:12;13.90;91.90
51175;DHT22;37240;50.104;20.010;2024-03-29T05:37:12;14.30;91.00
51175;DHT22;37240;50.104;20.010;2024-03-29T05:42:13;14.70;90.70
51175;DHT22;37240;50.104;20.010;2024-03-29T05:47:14;15.10;88.60
51175;DHT22;37240;50.104;20.010;2024-03-29T05:52:14;15.40;85.30
51175;DHT22;37240;50.104;20.010;2024-03-29T05:57:15;15.80;83.10
51175;DHT22;37240;50.104;20.010;2024-03-29T06:02:16;16.20;82.20
51175;DHT22;37240;50.104;20.010;2024-03-29T06:07:16;16.50;79.60
51175;DHT22;37240;50.104;20.010;2024-03-29T06:12:17;16.80;77.30
51175;DHT22;37240;50.104;20.010;2024-03-29T06:17:17;17.10;75.70
51175;DHT22;37240;50.104;20.010;2024-03-29T06:22:18;17.40;73.10
51175;DHT22;37240;50.104;20.010;2024-03-29T06:27:18;17.80;70.90
51175;DHT22;37240;50.104;20.010;2024-03-29T06:32:19;18.00;68.80
51175;DHT22;37240;50.104;20.010;2024-03-29T06:37:20;18.20;67.20
51175;DHT22;37240;50.104;20.010;2024-03-29T06:42:20;18.50;68.00
51175;DHT22;37240;50.104;20.010;2024-03-29T06:47:21;18.80;65.30
51175;DHT22;37240;50.104;20.010;2024-03-29T06:52:21;19.10;64.70
51175;DHT22;37240;50.104;20.010;2024-03-29T06:57:22;19.30;62.80
51175;DHT22;37240;50.104;20.010;2024-03-29T07:02:22;19.50;62.10
51175;DHT22;37240;50.104;20.010;2024-03-29T07:07:23;19.80;61.00
51175;DHT22;37240;50.104;20.010;2024-03-29T07:12:23;20.00;60.60
51175;DHT22;37240;50.104;20.010;2024-03-29T07:17:24;20.30;58.60
51175;DHT22;37240;50.104;20.010;2024-03-29T07:22:25;20.50;55.30
51175;DHT22;37240;50.104;20.010;2024-03-29T07:27:25;20.70;55.00
51175;DHT22;37240;50.104;20.010;2024-03-29T07:32:26;20.90;54.40
51175;DHT22;37240;50.104;20.010;2024-03-29T07:37:26;21.00;53.70
51175;DHT22;37240;50.104;20.010;2024-03-29T07:42:27;21.20;52.70
51175;DHT22;37240;50.104;20.010;2024-03-29T07:47:27;21.50;49.70
51175;DHT22;37240;50.104;20.010;2024-03-29T07:52:28;21.70;49.90
51175;DHT22;37240;50.104;20.010;2024-03-29T07:57:28;21.80;50.30
51175;DHT22;37240;50.104;20.010;2024-03-29T08:02:29;22.00;48.60
51175;DHT22;37240;50.104;20.010;2024-03-29T08:07:32;22.00;50.90
51175;DHT22;37240;50.104;20.010;2024-03-29T08:12:32;22.10;47.90
51175;DHT22;37240;50.104;20.010;2024-03-29T08:17:33;22.10;48.00
51175;DHT22;37240;50.104;20.010;2024-03-29T08:22:33;22.30;46.90
51175;DHT22;37240;50.104;20.010;2024-03-29T08:27:34;22.50;46.70
51175;DHT22;37240;50.104;20.010;2024-03-29T08:32:35;22.70;46.90
51175;DHT22;37240;50.104;20.010;2024-03-29T08:37:35;22.90;45.10
51175;DHT22;37240;50.104;20.010;2024-03-29T08:42:36;23.00;44.70
51175;DHT22;37240;50.104;20.010;2024-03-29T08:47:36;22.90;43.90
51175;DHT22;37240;50.104;20.010;2024-03-29T08:52:38;22.80;44.80
51175;DHT22;37240;50.104;20.010;2024-03-29T08:57:38;22.80;45.40
51175;DHT22;37240;50.104;20.010;2024-03-29T09:02:39;22.80;44.50
51175;DHT22;37240;50.104;20.010;2024-03-29T09:07:39;22.80;43.50
51175;DHT22;37240;50.104;20.010;2024-03-29T09:12:40;22.80;42.50
51175;DHT22;37240;50.104;20.010;2024-03-29T09:17:44;22.80;43.40
51175;DHT22;37240;50.104;20.010;2024-03-29T09:22:44;22.70;43.40
51175;DHT22;37240;50.104;20.010;2024-03-29T09:27:46;22.80;41.50
51175;DHT22;37240;50.104;20.010;2024-03-29T09:32:46;22.80;42.80
51175;DHT22;37240;50.104;20.010;2024-03-29T09:37:47;22.80;40.50
51175;DHT22;37240;50.104;20.010;2024-03-29T09:42:47;22.50;40.10
51175;DHT22;37240;50.104;20.010;2024-03-29T09:47:49;22.40;41.60
51175;DHT22;37240;50.104;20.010;2024-03-29T09:52:52;22.40;41.20
51175;DHT22;37240;50.104;20.010;2024-03-29T09:57:53;22.40;41.40
51175;DHT22;37240;50.104;20.010;2024-03-29T10:02:56;22.40;41.90
51175;DHT22;37240;50.104;20.010;2024-03-29T10:07:57;22.30;40.90
51175;DHT22;37240;50.104;20.010;2024-03-29T10:12:58;22.10;41.50
51175;DHT22;37240;50.104;20.010;2024-03-29T10:17:58;21.90;40.80
51175;DHT22;37240;50.104;20.010;2024-03-29T10:23:02;21.80;40.80
51175;DHT22;37240;50.104;20.010;2024-03-29T10:28:02;21.70;38.80
51175;DHT22;37240;50.104;20.010;2024-03-29T10:33:03;21.60;37.20
51175;DHT22;37240;50.104;20.010;2024-03-29T10:38:04;21.50;38.80
51175;DHT22;37240;50.104;20.010;2024-03-29T10:43:04;21.40;37.90
51175;DHT22;37240;50.104;20.010;2024-03-29T10:48:08;21.30;39.40
51175;DHT22;37240;50.104;20.010;2024-03-29T10:53:10;21.20;40.30
51175;DHT22;37240;50.104;20.010;2024-03-29T10:58:11;21.20;40.20
51175;DHT22;37240;50.104;20.010;2024-03-29T11:08:23;20.90;40.00
51175;DHT22;37240;50.104;20.010;2024-03-29T11:14:02;20.90;40.70
51175;DHT22;37240;50.104;20.010;2024-03-29T11:19:03;20.80;41.90
51175;DHT22;37240;50.104;20.010;2024-03-29T11:24:04;20.60;41.90
51175;DHT22;37240;50.104;20.010;2024-03-29T11:29:04;20.50;43.50
51175;DHT22;37240;50.104;20.010;2024-03-29T11:34:08;20.40;41.60
51175;DHT22;37240;50.104;20.010;2024-03-29T11:39:22;20.40;43.20
51175;DHT22;37240;50.104;20.010;2024-03-29T11:44:23;20.50;44.00
51175;DHT22;37240;50.104;20.010;2024-03-29T11:49:24;20.50;43.80
51175;DHT22;37240;50.104;20.010;2024-03-29T11:54:24;20.50;40.80
51175;DHT22;37240;50.104;20.010;2024-03-29T11:59:25;20.40;40.60
51175;DHT22;37240;50.104;20.010;2024-03-29T12:04:26;20.50;40.00
51175;DHT22;37240;50.104;20.010;2024-03-29T12:09:27;20.50;38.90
51175;DHT22;37240;50.104;20.010;2024-03-29T12:14:28;20.40;37.20
51175;DHT22;37240;50.104;20.010;2024-03-29T12:19:28;20.40;37.40
51175;DHT22;37240;50.104;20.010;2024-03-29T12:24:29;20.30;38.60
51175;DHT22;37240;50.104;20.010;2024-03-29T12:29:29;20.40;39.50
51175;DHT22;37240;50.104;20.010;2024-03-29T12:34:30;20.40;40.10
51175;DHT22;37240;50.104;20.010;2024-03-29T12:39:31;20.50;40.30
51175;DHT22;37240;50.104;20.010;2024-03-29T12:44:31;20.50;38.90
51175;DHT22;37240;50.104;20.010;2024-03-29T12:49:32;20.40;39.60
51175;DHT22;37240;50.104;20.010;2024-03-29T12:54:32;20.50;40.60
51175;DHT22;37240;50.104;20.010;2024-03-29T12:59:37;20.60;40.50
51175;DHT22;37240;50.104;20.010;2024-03-29T13:04:37;20.60;40.70
51175;DHT22;37240;50.104;20.010;2024-03-29T13:09:38;20.70;40.60
51175;DHT22;37240;50.104;20.010;2024-03-29T13:14:38;20.70;41.00
51175;DHT22;37240;50.104;20.010;2024-03-29T13:19:39;20.80;40.70
51175;DHT22;37240;50.104;20.010;2024-03-29T13:24:39;20.90;41.60
51175;DHT22;37240;50.104;20.010;2024-03-29T13:29:40;20.90;41.20
51175;DHT22;37240;50.104;20.010;2024-03-29T13:34:40;20.90;41.40
51175;DHT22;37240;50.104;20.010;2024-03-29T13:39:41;20.90;42.50
51175;DHT22;37240;50.104;20.010;2024-03-29T13:44:41;20.90;42.30
51175;DHT22;37240;50.104;20.010;2024-03-29T13:49:42;20.90;41.60
51175;DHT22;37240;50.104;20.010;2024-03-29T13:54:43;21.00;41.60
51175;DHT22;37240;50.104;20.010;2024-03-29T13:59:44;21.00;42.40
51175;DHT22;37240;50.104;20.010;2024-03-29T14:04:46;21.10;43.70
51175;DHT22;37240;50.104;20.010;2024-03-29T14:09:47;21.10;43.60
51175;DHT22;37240;50.104;20.010;2024-03-29T14:14:48;21.10;44.60
51175;DHT22;37240;50.104;20.010;2024-03-29T14:19:49;21.10;44.40
51175;DHT22;37240;50.104;20.010;2024-03-29T14:24:49;21.20;45.00
51175;DHT22;37240;50.104;20.010;2024-03-29T14:29:50;21.10;45.60
51175;DHT22;37240;50.104;20.010;2024-03-29T14:34:50;21.10;45.10
51175;DHT22;37240;50.104;20.010;2024-03-29T14:39:51;21.10;44.30
51175;DHT22;37240;50.104;20.010;2024-03-29T14:44:51;21.10;45.30
51175;DHT22;37240;50.104;20.010;2024-03-29T14:49:52;21.20;45.10
51175;DHT22;37240;50.104;20.010;2024-03-29T14:54:53;21.20;45.70
51175;DHT22;37240;50.104;20.010;2024-03-29T14:59:53;21.20;45.80
51175;DHT22;37240;50.104;20.010;2024-03-29T15:04:54;21.20;45.90
51175;DHT22;37240;50.104;20.010;2024-03-29T15:09:54;21.20;46.30
51175;DHT22;37240;50.104;20.010;2024-03-29T15:14:55;21.30;46.80
51175;DHT22;37240;50.104;20.010;2024-03-29T15:19:55;21.30;46.30
51175;DHT22;37240;50.104;20.010;2024-03-29T15:24:56;21.20;46.70
51175;DHT22;37240;50.104;20.010;2024-03-29T15:29:57;21.20;46.50
51175;DHT22;37240;50.104;20.010;2024-03-29T15:34:57;21.10;46.90
51175;DHT22;37240;50.104;20.010;2024-03-29T15:39:58;21.10;46.90
51175;DHT22;37240;50.104;20.010;2024-03-29T15:44:59;21.00;47.30
51175;DHT22;37240;50.104;20.010;2024-03-29T15:49:59;20.80;47.60
51175;DHT22;37240;50.104;20.010;2024-03-29T15:55:01;20.60;49.00
51175;DHT22;37240;50.104;20.010;2024-03-29T16:00:01;20.60;48.80
51175;DHT22;37240;50.104;20.010;2024-03-29T16:05:02;20.50;49.00
51175;DHT22;37240;50.104;20.010;2024-03-29T16:10:02;20.50;49.40
51175;DHT22;37240;50.104;20.010;2024-03-29T16:15:03;20.50;49.90
51175;DHT22;37240;50.104;20.010;2024-03-29T16:20:04;20.40;49.80
51175;DHT22;37240;50.104;20.010;2024-03-29T16:25:05;20.30;50.00
51175;DHT22;37240;50.104;20.010;2024-03-29T16:30:06;20.20;50.90
51175;DHT22;37240;50.104;20.010;2024-03-29T16:35:07;20.20;50.90
51175;DHT22;37240;50.104;20.010;2024-03-29T16:40:08;20.20;51.40
51175;DHT22;37240;50.104;20.010;2024-03-29T16:45:09;20.20;52.00
51175;DHT22;37240;50.104;20.010;2024-03-29T16:50:10;20.20;51.50
51175;DHT22;37240;50.104;20.010;2024-03-29T16:55:11;19.90;51.90
51175;DHT22;37240;50.104;20.010;2024-03-29T17:00:12;19.90;52.10
51175;DHT22;37240;50.104;20.010;2024-03-29T17:05:12;19.90;52.90
51175;DHT22;37240;50.104;20.010;2024-03-29T17:10:13;19.80;52.60
51175;DHT22;37240;50.104;20.010;2024-03-29T17:15:13;19.70;53.30
51175;DHT22;37240;50.104;20.010;2024-03-29T17:20:14;19.60;53.70
51175;DHT22;37240;50.104;20.010;2024-03-29T17:25:15;19.50;53.70
51175;DHT22;37240;50.104;20.010;2024-03-29T17:30:15;19.40;54.00
51175;DHT22;37240;50.104;20.010;2024-03-29T17:35:16;19.30;54.40
51175;DHT22;37240;50.104;20.010;2024-03-29T17:40:17;19.30;55.20
51175;DHT22;37240;50.104;20.010;2024-03-29T17:45:17;19.20;55.80
51175;DHT22;37240;50.104;20.010;2024-03-29T17:50:18;19.20;55.50
51175;DHT22;37240;50.104;20.010;2024-03-29T17:55:18;19.00;55.60
51175;DHT22;37240;50.104;20.010;2024-03-29T18:00:19;19.00;56.00
51175;DHT22;37240;50.104;20.010;2024-03-29T18:05:20;19.00;56.60
51175;DHT22;37240;50.104;20.010;2024-03-29T18:10:20;18.90;56.40
51175;DHT22;37240;50.104;20.010;2024-03-29T18:15:21;18.90;56.60
51175;DHT22;37240;50.104;20.010;2024-03-29T18:20:21;18.80;57.10
51175;DHT22;37240;50.104;20.010;2024-03-29T18:25:22;18.80;57.10
51175;DHT22;37240;50.104;20.010;2024-03-29T18:30:22;18.70;57.30
51175;DHT22;37240;50.104;20.010;2024-03-29T18:35:23;18.60;57.50
51175;DHT22;37240;50.104;20.010;2024-03-29T18:40:23;18.60;57.90
51175;DHT22;37240;50.104;20.010;2024-03-29T18:45:24;18.50;58.40
51175;DHT22;37240;50.104;20.010;2024-03-29T18:50:25;18.50;58.70
51175;DHT22;37240;50.104;20.010;2024-03-29T18:55:25;18.40;59.40
51175;DHT22;37240;50.104;20.010;2024-03-29T19:00:26;18.30;59.70
51175;DHT22;37240;50.104;20.010;2024-03-29T19:05:26;18.40;59.80
51175;DHT22;37240;50.104;20.010;2024-03-29T19:10:27;18.30;60.10
51175;DHT22;37240;50.104;20.010;2024-03-29T19:15:27;18.30;60.70
51175;DHT22;37240;50.104;20.010;2024-03-29T19:20:28;18.20;61.60
51175;DHT22;37240;50.104;20.010;2024-03-29T19:25:29;18.10;62.20
51175;DHT22;37240;50.104;20.010;2024-03-29T19:30:29;18.10;63.20
51175;DHT22;37240;50.104;20.010;2024-03-29T19:35:30;18.10;63.60
51175;DHT22;37240;50.104;20.010;2024-03-29T19:40:30;18.00;64.30
51175;DHT22;37240;50.104;20.010;2024-03-29T19:45:31;18.00;64.80
51175;DHT22;37240;50.104;20.010;2024-03-29T19:50:31;18.10;65.00
51175;DHT22;37240;50.104;20.010;2024-03-29T19:55:32;18.10;64.90
51175;DHT22;37240;50.104;20.010;2024-03-29T20:00:32;18.10;65.80
51175;DHT22;37240;50.104;20.010;2024-03-29T20:05:33;18.00;66.10
51175;DHT22;37240;50.104;20.010;2024-03-29T20:10:40;17.90;66.70
51175;DHT22;37240;50.104;20.010;2024-03-29T20:15:44;17.90;67.00
51175;DHT22;37240;50.104;20.010;2024-03-29T20:20:52;17.90;67.50
51175;DHT22;37240;50.104;20.010;2024-03-29T20:25:53;17.80;67.90
51175;DHT22;37240;50.104;20.010;2024-03-29T20:30:54;17.80;68.70
51175;DHT22;37240;50.104;20.010;2024-03-29T20:35:54;17.80;68.80
51175;DHT22;37240;50.104;20.010;2024-03-29T20:40:55;17.90;68.80
51175;DHT22;37240;50.104;20.010;2024-03-29T20:45:55;17.80;68.60
51175;DHT22;37240;50.104;20.010;2024-03-29T20:50:59;17.70;68.80
51175;DHT22;37240;50.104;20.010;2024-03-29T20:56:07;17.80;68.90
51175;DHT22;37240;50.104;20.010;2024-03-29T21:01:07;17.60;67.90
51175;DHT22;37240;50.104;20.010;2024-03-29T21:06:08;17.50;67.80
51175;DHT22;37240;50.104;20.010;2024-03-29T21:11:08;17.40;67.80
51175;DHT22;37240;50.104;20.010;2024-03-29T21:16:09;17.40;67.60
51175;DHT22;37240;50.104;20.010;2024-03-29T21:21:09;17.30;67.50
51175;DHT22;37240;50.104;20.010;2024-03-29T21:26:10;17.30;67.70
51175;DHT22;37240;50.104;20.010;2024-03-29T21:31:11;17.30;68.10
51175;DHT22;37240;50.104;20.010;2024-03-29T21:36:11;17.30;68.00
51175;DHT22;37240;50.104;20.010;2024-03-29T21:41:12;17.30;68.70
51175;DHT22;37240;50.104;20.010;2024-03-29T21:46:12;17.20;69.40
51175;DHT22;37240;50.104;20.010;2024-03-29T21:51:13;17.10;69.40
51175;DHT22;37240;50.104;20.010;2024-03-29T21:56:14;17.00;68.80
51175;DHT22;37240;50.104;20.010;2024-03-29T22:01:15;17.00;68.80
51175;DHT22;37240;50.104;20.010;2024-03-29T22:06:15;16.90;69.00
51175;DHT22;37240;50.104;20.010;2024-03-29T22:11:17;16.80;69.80
51175;DHT22;37240;50.104;20.010;2024-03-29T22:16:18;16.70;70.40
51175;DHT22;37240;50.104;20.010;2024-03-29T22:21:18;16.70;71.00
51175;DHT22;37240;50.104;20.010;2024-03-29T22:26:19;16.60;71.70
51175;DHT22;37240;50.104;20.010;2024-03-29T22:31:19;16.60;71.80
51175;DHT22;37240;50.104;20.010;2024-03-29T22:36:30;16.60;72.50
51175;DHT22;37240;50.104;20.010;2024-03-29T22:41:31;16.50;73.40
51175;DHT22;37240;50.104;20.010;2024-03-29T22:46:31;16.40;73.60
51175;DHT22;37240;50.104;20.010;2024-03-29T22:51:32;16.50;73.70
51175;DHT22;37240;50.104;20.010;2024-03-29T22:56:32;16.40;74.40
51175;DHT22;37240;50.104;20.010;2024-03-29T23:01:33;16.20;75.50
51175;DHT22;37240;50.104;20.010;2024-03-29T23:06:33;16.20;76.10
51175;DHT22;37240;50.104;20.010;2024-03-29T23:11:34;16.20;76.00
51175;DHT22;37240;50.104;20.010;2024-03-29T23:16:35;16.10;76.80
51175;DHT22;37240;50.104;20.010;2024-03-29T23:21:35;16.00;77.10
51175;DHT22;37240;50.104;20.010;2024-03-29T23:26:36;16.00;77.50
51175;DHT22;37240;50.104;20.010;2024-03-29T23:31:37;16.00;77.70
51175;DHT22;37240;50.104;20.010;2024-03-29T23:36:38;16.10;77.70
51175;DHT22;37240;50.104;20.010;2024-03-29T23:41:38;15.90;79.00
51175;DHT22;37240;50.104;20.010;2024-03-29T23:46:39;15.70;80.00
51175;DHT22;37240;50.104;20.010;2024-03-29T23:51:41;15.60;80.80
51175;DHT22;37240;50.104;20.010;2024-03-29T23:56:41;15.50;81.80
